Acorn, Arkansas
Current Conditions -  °F | °C
As of 7:55 PM on Thursday 18 Dec 2014 (Local Time) from KMEZ Reporting Station
Overcast Overcast  
Wind Chill:   Ceiling: 400
Heat Index:   Visibility: 7mi
Dew Point:   Wind: 5mph
Humidity: 93%   Direction: 70°ENE
Pressure: 30.19"   Gusts: NA
Location:  34.592°N, 94.1901°W
Report Text: KMEZ 190155Z AUTO 07004KT 7SM OVC004 07/06 A3019 RMK AO2
Loading
Personal Weather Stations






























Interactive Weather Map New forecast layout! Learn more

10-Day Weather Forecast

Advertisements
Track Severe Weather on mobile